sensor_id;sensor_type;location;lat;lon;timestamp;P1;durP1;ratioP1;P2;durP2;ratioP2
49237;SDS011;35069;47.906;1.892;2023-01-29T00:00:15;29.40;;;14.85;;
49237;SDS011;35069;47.906;1.892;2023-01-29T00:02:42;29.30;;;16.08;;
49237;SDS011;35069;47.906;1.892;2023-01-29T00:05:10;28.52;;;16.15;;
49237;SDS011;35069;47.906;1.892;2023-01-29T00:07:47;26.40;;;14.10;;
49237;SDS011;35069;47.906;1.892;2023-01-29T00:10:13;28.27;;;14.95;;
49237;SDS011;35069;47.906;1.892;2023-01-29T00:12:39;24.88;;;13.68;;
49237;SDS011;35069;47.906;1.892;2023-01-29T00:15:05;31.02;;;15.25;;
49237;SDS011;35069;47.906;1.892;2023-01-29T00:17:31;30.13;;;15.80;;
49237;SDS011;35069;47.906;1.892;2023-01-29T00:19:57;26.10;;;14.93;;
49237;SDS011;35069;47.906;1.892;2023-01-29T00:22:23;26.20;;;15.77;;
49237;SDS011;35069;47.906;1.892;2023-01-29T00:24:48;27.55;;;15.82;;
49237;SDS011;35069;47.906;1.892;2023-01-29T00:27:14;27.50;;;14.70;;
49237;SDS011;35069;47.906;1.892;2023-01-29T00:29:40;32.03;;;15.60;;
49237;SDS011;35069;47.906;1.892;2023-01-29T00:32:08;26.17;;;15.85;;
49237;SDS011;35069;47.906;1.892;2023-01-29T00:34:34;32.15;;;16.48;;
49237;SDS011;35069;47.906;1.892;2023-01-29T00:36:59;27.20;;;14.73;;
49237;SDS011;35069;47.906;1.892;2023-01-29T00:39:32;29.58;;;15.68;;
49237;SDS011;35069;47.906;1.892;2023-01-29T00:42:05;24.52;;;13.13;;
49237;SDS011;35069;47.906;1.892;2023-01-29T00:44:57;30.65;;;14.57;;
49237;SDS011;35069;47.906;1.892;2023-01-29T00:47:25;25.67;;;14.32;;
49237;SDS011;35069;47.906;1.892;2023-01-29T00:50:00;30.15;;;15.23;;
49237;SDS011;35069;47.906;1.892;2023-01-29T00:52:27;29.33;;;15.60;;
49237;SDS011;35069;47.906;1.892;2023-01-29T00:54:54;31.10;;;17.08;;
49237;SDS011;35069;47.906;1.892;2023-01-29T00:57:25;33.40;;;16.77;;
49237;SDS011;35069;47.906;1.892;2023-01-29T00:59:52;32.90;;;17.10;;
49237;SDS011;35069;47.906;1.892;2023-01-29T01:02:18;32.65;;;16.48;;
49237;SDS011;35069;47.906;1.892;2023-01-29T01:05:03;30.63;;;16.13;;
49237;SDS011;35069;47.906;1.892;2023-01-29T01:07:34;28.48;;;15.63;;
49237;SDS011;35069;47.906;1.892;2023-01-29T01:09:59;26.15;;;15.02;;
49237;SDS011;35069;47.906;1.892;2023-01-29T01:12:44;31.92;;;16.88;;
49237;SDS011;35069;47.906;1.892;2023-01-29T01:15:10;29.00;;;16.15;;
49237;SDS011;35069;47.906;1.892;2023-01-29T01:17:35;31.13;;;16.10;;
49237;SDS011;35069;47.906;1.892;2023-01-29T01:20:04;23.50;;;14.00;;
49237;SDS011;35069;47.906;1.892;2023-01-29T01:22:35;34.60;;;16.17;;
49237;SDS011;35069;47.906;1.892;2023-01-29T01:25:04;28.10;;;15.43;;
49237;SDS011;35069;47.906;1.892;2023-01-29T01:27:32;29.52;;;15.38;;
49237;SDS011;35069;47.906;1.892;2023-01-29T01:30:09;28.90;;;15.88;;
49237;SDS011;35069;47.906;1.892;2023-01-29T01:33:15;23.92;;;14.77;;
49237;SDS011;35069;47.906;1.892;2023-01-29T01:39:34;28.05;;;13.98;;
49237;SDS011;35069;47.906;1.892;2023-01-29T01:45:47;27.27;;;16.00;;
49237;SDS011;35069;47.906;1.892;2023-01-29T01:48:23;31.90;;;16.65;;
49237;SDS011;35069;47.906;1.892;2023-01-29T01:50:55;30.20;;;15.57;;
49237;SDS011;35069;47.906;1.892;2023-01-29T01:53:31;30.38;;;16.02;;
49237;SDS011;35069;47.906;1.892;2023-01-29T01:56:04;34.55;;;16.42;;
49237;SDS011;35069;47.906;1.892;2023-01-29T01:58:34;28.38;;;15.95;;
49237;SDS011;35069;47.906;1.892;2023-01-29T02:01:03;31.27;;;16.48;;
49237;SDS011;35069;47.906;1.892;2023-01-29T02:03:32;29.42;;;16.00;;
49237;SDS011;35069;47.906;1.892;2023-01-29T02:06:21;25.55;;;14.85;;
49237;SDS011;35069;47.906;1.892;2023-01-29T02:09:07;28.30;;;15.93;;
49237;SDS011;35069;47.906;1.892;2023-01-29T02:11:59;30.38;;;16.63;;
49237;SDS011;35069;47.906;1.892;2023-01-29T02:14:26;30.70;;;15.88;;
49237;SDS011;35069;47.906;1.892;2023-01-29T02:16:54;30.83;;;16.33;;
49237;SDS011;35069;47.906;1.892;2023-01-29T02:27:19;31.52;;;17.30;;
49237;SDS011;35069;47.906;1.892;2023-01-29T02:33:08;25.17;;;13.55;;
49237;SDS011;35069;47.906;1.892;2023-01-29T02:36:12;32.03;;;15.13;;
49237;SDS011;35069;47.906;1.892;2023-01-29T02:45:07;26.77;;;13.88;;
49237;SDS011;35069;47.906;1.892;2023-01-29T02:47:48;28.20;;;15.02;;
49237;SDS011;35069;47.906;1.892;2023-01-29T02:55:24;26.42;;;15.02;;
49237;SDS011;35069;47.906;1.892;2023-01-29T02:58:04;26.77;;;14.95;;
49237;SDS011;35069;47.906;1.892;2023-01-29T03:00:40;26.23;;;14.93;;
49237;SDS011;35069;47.906;1.892;2023-01-29T03:03:19;27.75;;;14.85;;
49237;SDS011;35069;47.906;1.892;2023-01-29T03:05:55;31.10;;;16.35;;
49237;SDS011;35069;47.906;1.892;2023-01-29T03:08:42;28.55;;;15.40;;
49237;SDS011;35069;47.906;1.892;2023-01-29T03:11:18;26.97;;;14.23;;
49237;SDS011;35069;47.906;1.892;2023-01-29T03:13:46;28.02;;;14.85;;
49237;SDS011;35069;47.906;1.892;2023-01-29T03:18:48;30.00;;;15.38;;
49237;SDS011;35069;47.906;1.892;2023-01-29T03:21:30;31.80;;;16.00;;
49237;SDS011;35069;47.906;1.892;2023-01-29T03:24:16;31.52;;;15.82;;
49237;SDS011;35069;47.906;1.892;2023-01-29T03:27:06;27.95;;;16.15;;
49237;SDS011;35069;47.906;1.892;2023-01-29T03:29:53;31.50;;;16.15;;
49237;SDS011;35069;47.906;1.892;2023-01-29T03:32:40;31.83;;;16.70;;
49237;SDS011;35069;47.906;1.892;2023-01-29T03:35:10;31.92;;;16.20;;
49237;SDS011;35069;47.906;1.892;2023-01-29T03:37:45;29.70;;;16.08;;
49237;SDS011;35069;47.906;1.892;2023-01-29T03:40:12;29.90;;;16.10;;
49237;SDS011;35069;47.906;1.892;2023-01-29T03:54:15;36.83;;;19.13;;
49237;SDS011;35069;47.906;1.892;2023-01-29T03:59:31;32.22;;;17.25;;
49237;SDS011;35069;47.906;1.892;2023-01-29T04:02:11;32.42;;;17.45;;
49237;SDS011;35069;47.906;1.892;2023-01-29T04:04:43;34.88;;;18.77;;
49237;SDS011;35069;47.906;1.892;2023-01-29T04:07:12;32.85;;;16.50;;
49237;SDS011;35069;47.906;1.892;2023-01-29T04:12:28;34.88;;;17.42;;
49237;SDS011;35069;47.906;1.892;2023-01-29T04:15:00;31.20;;;16.83;;
49237;SDS011;35069;47.906;1.892;2023-01-29T04:17:33;30.88;;;16.23;;
49237;SDS011;35069;47.906;1.892;2023-01-29T04:20:03;26.63;;;15.55;;
49237;SDS011;35069;47.906;1.892;2023-01-29T04:22:31;31.02;;;16.20;;
49237;SDS011;35069;47.906;1.892;2023-01-29T04:25:02;37.55;;;19.27;;
49237;SDS011;35069;47.906;1.892;2023-01-29T04:33:59;32.78;;;17.60;;
49237;SDS011;35069;47.906;1.892;2023-01-29T04:47:36;35.22;;;17.20;;
49237;SDS011;35069;47.906;1.892;2023-01-29T04:53:03;30.88;;;17.40;;
49237;SDS011;35069;47.906;1.892;2023-01-29T04:55:47;34.40;;;17.92;;
49237;SDS011;35069;47.906;1.892;2023-01-29T04:58:25;38.00;;;20.02;;
49237;SDS011;35069;47.906;1.892;2023-01-29T05:03:26;37.17;;;18.88;;
49237;SDS011;35069;47.906;1.892;2023-01-29T05:05:54;35.13;;;17.65;;
49237;SDS011;35069;47.906;1.892;2023-01-29T05:08:24;35.53;;;18.50;;
49237;SDS011;35069;47.906;1.892;2023-01-29T05:10:56;38.10;;;19.52;;
49237;SDS011;35069;47.906;1.892;2023-01-29T05:13:23;35.92;;;18.80;;
49237;SDS011;35069;47.906;1.892;2023-01-29T05:15:53;35.05;;;18.30;;
49237;SDS011;35069;47.906;1.892;2023-01-29T05:18:25;36.88;;;18.02;;
49237;SDS011;35069;47.906;1.892;2023-01-29T05:20:52;40.67;;;20.45;;
49237;SDS011;35069;47.906;1.892;2023-01-29T05:23:22;40.15;;;19.65;;
49237;SDS011;35069;47.906;1.892;2023-01-29T05:25:48;39.70;;;20.67;;
49237;SDS011;35069;47.906;1.892;2023-01-29T05:28:15;38.53;;;20.23;;
49237;SDS011;35069;47.906;1.892;2023-01-29T05:30:42;37.08;;;18.85;;
49237;SDS011;35069;47.906;1.892;2023-01-29T05:33:13;38.78;;;20.45;;
49237;SDS011;35069;47.906;1.892;2023-01-29T05:35:45;39.88;;;19.92;;
49237;SDS011;35069;47.906;1.892;2023-01-29T05:38:11;35.22;;;18.42;;
49237;SDS011;35069;47.906;1.892;2023-01-29T05:40:38;38.25;;;20.02;;
49237;SDS011;35069;47.906;1.892;2023-01-29T05:43:04;37.20;;;19.77;;
49237;SDS011;35069;47.906;1.892;2023-01-29T05:45:30;39.58;;;20.42;;
49237;SDS011;35069;47.906;1.892;2023-01-29T05:47:57;36.80;;;18.20;;
49237;SDS011;35069;47.906;1.892;2023-01-29T05:50:24;38.65;;;20.17;;
49237;SDS011;35069;47.906;1.892;2023-01-29T05:52:57;40.15;;;20.63;;
49237;SDS011;35069;47.906;1.892;2023-01-29T05:55:24;36.90;;;18.20;;
49237;SDS011;35069;47.906;1.892;2023-01-29T05:58:01;37.22;;;20.33;;
49237;SDS011;35069;47.906;1.892;2023-01-29T06:00:27;40.58;;;20.92;;
49237;SDS011;35069;47.906;1.892;2023-01-29T06:02:57;38.83;;;19.90;;
49237;SDS011;35069;47.906;1.892;2023-01-29T06:05:32;37.72;;;19.17;;
49237;SDS011;35069;47.906;1.892;2023-01-29T06:08:05;42.00;;;20.70;;
49237;SDS011;35069;47.906;1.892;2023-01-29T06:10:31;36.97;;;19.63;;
49237;SDS011;35069;47.906;1.892;2023-01-29T06:13:00;34.65;;;18.63;;
49237;SDS011;35069;47.906;1.892;2023-01-29T06:15:39;42.45;;;19.27;;
49237;SDS011;35069;47.906;1.892;2023-01-29T06:18:05;39.33;;;19.70;;
49237;SDS011;35069;47.906;1.892;2023-01-29T06:20:36;38.67;;;20.25;;
49237;SDS011;35069;47.906;1.892;2023-01-29T06:23:02;33.97;;;19.50;;
49237;SDS011;35069;47.906;1.892;2023-01-29T06:25:35;41.30;;;20.13;;
49237;SDS011;35069;47.906;1.892;2023-01-29T06:28:01;40.58;;;20.48;;
49237;SDS011;35069;47.906;1.892;2023-01-29T06:30:29;36.40;;;19.30;;
49237;SDS011;35069;47.906;1.892;2023-01-29T06:33:00;45.13;;;21.63;;
49237;SDS011;35069;47.906;1.892;2023-01-29T06:35:26;39.65;;;20.65;;
49237;SDS011;35069;47.906;1.892;2023-01-29T06:37:52;38.88;;;20.13;;
49237;SDS011;35069;47.906;1.892;2023-01-29T06:40:18;38.45;;;20.20;;
49237;SDS011;35069;47.906;1.892;2023-01-29T06:42:44;40.45;;;21.15;;
49237;SDS011;35069;47.906;1.892;2023-01-29T06:45:10;43.00;;;22.77;;
49237;SDS011;35069;47.906;1.892;2023-01-29T06:47:36;40.83;;;19.77;;
49237;SDS011;35069;47.906;1.892;2023-01-29T06:50:02;48.42;;;22.63;;
49237;SDS011;35069;47.906;1.892;2023-01-29T06:52:28;41.33;;;22.60;;
49237;SDS011;35069;47.906;1.892;2023-01-29T06:54:54;46.65;;;21.42;;
49237;SDS011;35069;47.906;1.892;2023-01-29T06:57:20;43.13;;;20.27;;
49237;SDS011;35069;47.906;1.892;2023-01-29T06:59:46;51.33;;;25.55;;
49237;SDS011;35069;47.906;1.892;2023-01-29T07:02:12;43.65;;;22.25;;
49237;SDS011;35069;47.906;1.892;2023-01-29T07:04:38;35.90;;;19.08;;
49237;SDS011;35069;47.906;1.892;2023-01-29T07:07:05;41.72;;;20.27;;
49237;SDS011;35069;47.906;1.892;2023-01-29T07:09:37;42.47;;;21.98;;
49237;SDS011;35069;47.906;1.892;2023-01-29T07:12:06;44.03;;;21.50;;
49237;SDS011;35069;47.906;1.892;2023-01-29T07:14:32;41.53;;;21.02;;
49237;SDS011;35069;47.906;1.892;2023-01-29T07:16:58;39.67;;;20.10;;
49237;SDS011;35069;47.906;1.892;2023-01-29T07:19:24;42.75;;;21.48;;
49237;SDS011;35069;47.906;1.892;2023-01-29T07:21:49;42.42;;;20.92;;
49237;SDS011;35069;47.906;1.892;2023-01-29T07:24:15;39.63;;;21.35;;
49237;SDS011;35069;47.906;1.892;2023-01-29T07:26:43;46.88;;;23.85;;
49237;SDS011;35069;47.906;1.892;2023-01-29T07:29:09;42.67;;;21.98;;
49237;SDS011;35069;47.906;1.892;2023-01-29T07:31:35;46.50;;;23.30;;
49237;SDS011;35069;47.906;1.892;2023-01-29T07:34:01;43.33;;;22.25;;
49237;SDS011;35069;47.906;1.892;2023-01-29T07:36:27;41.08;;;22.63;;
49237;SDS011;35069;47.906;1.892;2023-01-29T07:38:53;42.03;;;21.67;;
49237;SDS011;35069;47.906;1.892;2023-01-29T07:41:19;50.63;;;22.40;;
49237;SDS011;35069;47.906;1.892;2023-01-29T07:43:45;39.95;;;21.25;;
49237;SDS011;35069;47.906;1.892;2023-01-29T07:46:11;40.72;;;20.95;;
49237;SDS011;35069;47.906;1.892;2023-01-29T07:48:37;46.92;;;24.05;;
49237;SDS011;35069;47.906;1.892;2023-01-29T07:51:02;45.67;;;23.52;;
49237;SDS011;35069;47.906;1.892;2023-01-29T07:53:28;48.80;;;25.05;;
49237;SDS011;35069;47.906;1.892;2023-01-29T07:55:54;47.03;;;26.35;;
49237;SDS011;35069;47.906;1.892;2023-01-29T07:58:20;48.72;;;24.67;;
49237;SDS011;35069;47.906;1.892;2023-01-29T08:00:46;51.55;;;26.95;;
49237;SDS011;35069;47.906;1.892;2023-01-29T08:03:13;48.17;;;24.42;;
49237;SDS011;35069;47.906;1.892;2023-01-29T08:05:41;53.80;;;23.13;;
49237;SDS011;35069;47.906;1.892;2023-01-29T08:08:09;49.65;;;24.02;;
49237;SDS011;35069;47.906;1.892;2023-01-29T08:10:36;42.33;;;21.33;;
49237;SDS011;35069;47.906;1.892;2023-01-29T08:13:03;44.15;;;22.80;;
49237;SDS011;35069;47.906;1.892;2023-01-29T08:15:29;43.72;;;22.40;;
49237;SDS011;35069;47.906;1.892;2023-01-29T08:17:56;39.00;;;21.95;;
49237;SDS011;35069;47.906;1.892;2023-01-29T08:20:22;40.15;;;21.77;;
49237;SDS011;35069;47.906;1.892;2023-01-29T08:22:48;39.70;;;21.25;;
49237;SDS011;35069;47.906;1.892;2023-01-29T08:25:14;40.70;;;20.15;;
49237;SDS011;35069;47.906;1.892;2023-01-29T08:27:40;40.22;;;20.38;;
49237;SDS011;35069;47.906;1.892;2023-01-29T08:30:06;38.22;;;19.67;;
49237;SDS011;35069;47.906;1.892;2023-01-29T08:32:33;36.88;;;19.25;;
49237;SDS011;35069;47.906;1.892;2023-01-29T08:34:58;41.25;;;20.80;;
49237;SDS011;35069;47.906;1.892;2023-01-29T08:37:24;39.72;;;21.50;;
49237;SDS011;35069;47.906;1.892;2023-01-29T08:39:50;43.75;;;21.60;;
49237;SDS011;35069;47.906;1.892;2023-01-29T08:42:15;39.75;;;21.20;;
49237;SDS011;35069;47.906;1.892;2023-01-29T08:44:41;39.55;;;22.42;;
49237;SDS011;35069;47.906;1.892;2023-01-29T08:47:06;42.78;;;20.33;;
49237;SDS011;35069;47.906;1.892;2023-01-29T08:49:32;37.90;;;20.63;;
49237;SDS011;35069;47.906;1.892;2023-01-29T08:51:58;42.22;;;23.05;;
49237;SDS011;35069;47.906;1.892;2023-01-29T08:54:23;34.70;;;18.75;;
49237;SDS011;35069;47.906;1.892;2023-01-29T08:56:49;35.90;;;20.00;;
49237;SDS011;35069;47.906;1.892;2023-01-29T08:59:15;34.42;;;19.77;;
49237;SDS011;35069;47.906;1.892;2023-01-29T09:01:41;38.88;;;20.65;;
49237;SDS011;35069;47.906;1.892;2023-01-29T09:04:07;37.45;;;20.58;;
49237;SDS011;35069;47.906;1.892;2023-01-29T09:06:32;40.47;;;20.30;;
49237;SDS011;35069;47.906;1.892;2023-01-29T09:08:58;34.75;;;19.42;;
49237;SDS011;35069;47.906;1.892;2023-01-29T09:11:24;44.70;;;21.77;;
49237;SDS011;35069;47.906;1.892;2023-01-29T09:13:49;37.40;;;20.48;;
49237;SDS011;35069;47.906;1.892;2023-01-29T09:16:15;39.08;;;22.55;;
49237;SDS011;35069;47.906;1.892;2023-01-29T09:18:41;43.75;;;23.45;;
49237;SDS011;35069;47.906;1.892;2023-01-29T09:21:06;39.45;;;20.80;;
49237;SDS011;35069;47.906;1.892;2023-01-29T09:23:32;37.85;;;19.90;;
49237;SDS011;35069;47.906;1.892;2023-01-29T09:25:58;37.08;;;20.58;;
49237;SDS011;35069;47.906;1.892;2023-01-29T09:28:24;41.75;;;21.92;;
49237;SDS011;35069;47.906;1.892;2023-01-29T09:30:50;37.20;;;20.65;;
49237;SDS011;35069;47.906;1.892;2023-01-29T09:33:16;35.08;;;20.25;;
49237;SDS011;35069;47.906;1.892;2023-01-29T09:35:42;37.85;;;20.23;;
49237;SDS011;35069;47.906;1.892;2023-01-29T09:38:10;38.80;;;21.80;;
49237;SDS011;35069;47.906;1.892;2023-01-29T09:43:38;38.20;;;20.92;;
49237;SDS011;35069;47.906;1.892;2023-01-29T09:46:06;38.78;;;21.05;;
49237;SDS011;35069;47.906;1.892;2023-01-29T09:48:39;38.38;;;20.40;;
49237;SDS011;35069;47.906;1.892;2023-01-29T09:51:17;37.20;;;19.60;;
49237;SDS011;35069;47.906;1.892;2023-01-29T09:54:08;39.13;;;21.52;;
49237;SDS011;35069;47.906;1.892;2023-01-29T09:56:54;41.50;;;22.10;;
49237;SDS011;35069;47.906;1.892;2023-01-29T09:59:25;38.75;;;20.75;;
49237;SDS011;35069;47.906;1.892;2023-01-29T10:04:40;33.13;;;19.02;;
49237;SDS011;35069;47.906;1.892;2023-01-29T10:07:44;37.08;;;19.90;;
49237;SDS011;35069;47.906;1.892;2023-01-29T10:15:41;29.92;;;17.77;;
49237;SDS011;35069;47.906;1.892;2023-01-29T10:18:23;27.17;;;16.77;;
49237;SDS011;35069;47.906;1.892;2023-01-29T10:21:13;33.80;;;15.60;;
49237;SDS011;35069;47.906;1.892;2023-01-29T10:24:40;30.83;;;18.02;;
49237;SDS011;35069;47.906;1.892;2023-01-29T10:26:38;33.47;;;16.27;;
49237;SDS011;35069;47.906;1.892;2023-01-29T10:29:05;30.38;;;17.02;;
49237;SDS011;35069;47.906;1.892;2023-01-29T10:31:32;30.65;;;16.98;;
49237;SDS011;35069;47.906;1.892;2023-01-29T10:36:33;33.80;;;17.48;;
49237;SDS011;35069;47.906;1.892;2023-01-29T10:39:09;25.90;;;15.65;;
49237;SDS011;35069;47.906;1.892;2023-01-29T10:44:38;29.60;;;18.27;;
49237;SDS011;35069;47.906;1.892;2023-01-29T10:52:49;24.38;;;14.43;;
49237;SDS011;35069;47.906;1.892;2023-01-29T10:55:38;27.30;;;15.32;;
49237;SDS011;35069;47.906;1.892;2023-01-29T11:00:49;22.73;;;14.60;;
49237;SDS011;35069;47.906;1.892;2023-01-29T11:03:24;22.30;;;14.77;;
49237;SDS011;35069;47.906;1.892;2023-01-29T11:08:53;21.67;;;14.38;;
49237;SDS011;35069;47.906;1.892;2023-01-29T11:11:27;22.63;;;15.40;;
49237;SDS011;35069;47.906;1.892;2023-01-29T11:14:12;21.40;;;15.57;;
49237;SDS011;35069;47.906;1.892;2023-01-29T11:16:43;18.58;;;13.45;;
49237;SDS011;35069;47.906;1.892;2023-01-29T11:19:11;22.77;;;15.07;;
49237;SDS011;35069;47.906;1.892;2023-01-29T11:24:25;20.75;;;14.13;;
49237;SDS011;35069;47.906;1.892;2023-01-29T11:26:53;23.38;;;15.90;;
49237;SDS011;35069;47.906;1.892;2023-01-29T11:29:31;19.80;;;14.63;;
49237;SDS011;35069;47.906;1.892;2023-01-29T11:31:58;23.55;;;15.25;;
49237;SDS011;35069;47.906;1.892;2023-01-29T11:34:26;23.05;;;15.82;;
49237;SDS011;35069;47.906;1.892;2023-01-29T11:37:00;24.75;;;15.93;;
49237;SDS011;35069;47.906;1.892;2023-01-29T11:39:27;20.75;;;14.98;;
49237;SDS011;35069;47.906;1.892;2023-01-29T11:44:26;19.90;;;14.45;;
49237;SDS011;35069;47.906;1.892;2023-01-29T11:46:53;19.13;;;13.93;;
49237;SDS011;35069;47.906;1.892;2023-01-29T11:49:31;22.08;;;14.57;;
49237;SDS011;35069;47.906;1.892;2023-01-29T11:51:59;24.75;;;16.20;;
49237;SDS011;35069;47.906;1.892;2023-01-29T11:54:48;21.05;;;14.43;;
49237;SDS011;35069;47.906;1.892;2023-01-29T11:57:22;22.73;;;15.90;;
49237;SDS011;35069;47.906;1.892;2023-01-29T11:59:51;23.33;;;15.50;;
49237;SDS011;35069;47.906;1.892;2023-01-29T12:02:52;20.83;;;15.23;;
49237;SDS011;35069;47.906;1.892;2023-01-29T12:05:14;25.50;;;18.13;;
49237;SDS011;35069;47.906;1.892;2023-01-29T12:07:42;21.73;;;16.02;;
49237;SDS011;35069;47.906;1.892;2023-01-29T12:13:16;25.40;;;16.65;;
49237;SDS011;35069;47.906;1.892;2023-01-29T12:15:50;23.03;;;16.33;;
49237;SDS011;35069;47.906;1.892;2023-01-29T12:18:59;22.95;;;16.40;;
49237;SDS011;35069;47.906;1.892;2023-01-29T12:21:45;21.48;;;15.07;;
49237;SDS011;35069;47.906;1.892;2023-01-29T12:24:28;26.95;;;18.38;;
49237;SDS011;35069;47.906;1.892;2023-01-29T12:27:04;21.05;;;15.15;;
49237;SDS011;35069;47.906;1.892;2023-01-29T12:29:46;25.25;;;17.85;;
49237;SDS011;35069;47.906;1.892;2023-01-29T12:32:24;22.02;;;15.65;;
49237;SDS011;35069;47.906;1.892;2023-01-29T12:34:52;22.85;;;17.17;;
49237;SDS011;35069;47.906;1.892;2023-01-29T12:37:21;25.35;;;16.77;;
49237;SDS011;35069;47.906;1.892;2023-01-29T12:40:15;21.63;;;15.93;;
49237;SDS011;35069;47.906;1.892;2023-01-29T12:42:44;27.25;;;17.33;;
49237;SDS011;35069;47.906;1.892;2023-01-29T12:45:20;23.27;;;16.17;;
49237;SDS011;35069;47.906;1.892;2023-01-29T12:47:51;23.50;;;15.45;;
49237;SDS011;35069;47.906;1.892;2023-01-29T12:50:25;26.25;;;18.23;;
49237;SDS011;35069;47.906;1.892;2023-01-29T12:52:59;25.02;;;16.15;;
49237;SDS011;35069;47.906;1.892;2023-01-29T12:55:35;21.92;;;15.68;;
49237;SDS011;35069;47.906;1.892;2023-01-29T13:00:42;19.45;;;13.77;;
49237;SDS011;35069;47.906;1.892;2023-01-29T13:05:45;20.48;;;13.73;;
49237;SDS011;35069;47.906;1.892;2023-01-29T13:11:07;22.63;;;14.93;;
49237;SDS011;35069;47.906;1.892;2023-01-29T13:13:48;24.92;;;15.52;;
49237;SDS011;35069;47.906;1.892;2023-01-29T13:16:20;20.42;;;14.52;;
49237;SDS011;35069;47.906;1.892;2023-01-29T13:18:51;24.75;;;16.08;;
49237;SDS011;35069;47.906;1.892;2023-01-29T13:21:20;22.73;;;15.43;;
49237;SDS011;35069;47.906;1.892;2023-01-29T13:23:50;25.92;;;16.02;;
49237;SDS011;35069;47.906;1.892;2023-01-29T13:26:21;22.35;;;16.17;;
49237;SDS011;35069;47.906;1.892;2023-01-29T13:28:48;21.77;;;16.20;;
49237;SDS011;35069;47.906;1.892;2023-01-29T13:36:45;25.27;;;15.15;;
49237;SDS011;35069;47.906;1.892;2023-01-29T13:39:32;24.98;;;14.65;;
49237;SDS011;35069;47.906;1.892;2023-01-29T13:42:42;23.75;;;15.00;;
49237;SDS011;35069;47.906;1.892;2023-01-29T13:45:04;27.77;;;15.55;;
49237;SDS011;35069;47.906;1.892;2023-01-29T13:47:37;19.20;;;13.00;;
49237;SDS011;35069;47.906;1.892;2023-01-29T13:52:33;26.67;;;14.15;;
49237;SDS011;35069;47.906;1.892;2023-01-29T14:02:44;24.23;;;14.20;;
49237;SDS011;35069;47.906;1.892;2023-01-29T14:05:42;18.10;;;12.52;;
49237;SDS011;35069;47.906;1.892;2023-01-29T14:13:46;20.63;;;12.40;;
49237;SDS011;35069;47.906;1.892;2023-01-29T14:18:52;32.67;;;18.60;;
49237;SDS011;35069;47.906;1.892;2023-01-29T14:21:24;24.75;;;16.13;;
49237;SDS011;35069;47.906;1.892;2023-01-29T14:23:58;21.95;;;12.52;;
49237;SDS011;35069;47.906;1.892;2023-01-29T14:29:26;17.17;;;12.18;;
49237;SDS011;35069;47.906;1.892;2023-01-29T14:31:58;21.38;;;12.45;;
49237;SDS011;35069;47.906;1.892;2023-01-29T14:34:41;18.85;;;11.63;;
49237;SDS011;35069;47.906;1.892;2023-01-29T14:39:47;17.50;;;11.23;;
49237;SDS011;35069;47.906;1.892;2023-01-29T14:42:25;19.60;;;12.18;;
49237;SDS011;35069;47.906;1.892;2023-01-29T14:47:20;15.38;;;11.20;;
49237;SDS011;35069;47.906;1.892;2023-01-29T14:49:56;14.85;;;10.48;;
49237;SDS011;35069;47.906;1.892;2023-01-29T14:52:39;17.63;;;11.25;;
49237;SDS011;35069;47.906;1.892;2023-01-29T14:57:54;15.50;;;10.15;;
49237;SDS011;35069;47.906;1.892;2023-01-29T15:02:52;22.25;;;10.40;;
49237;SDS011;35069;47.906;1.892;2023-01-29T15:05:21;13.13;;;8.80;;
49237;SDS011;35069;47.906;1.892;2023-01-29T15:07:57;15.30;;;9.85;;
49237;SDS011;35069;47.906;1.892;2023-01-29T15:10:36;17.20;;;9.95;;
49237;SDS011;35069;47.906;1.892;2023-01-29T15:13:13;16.55;;;11.02;;
49237;SDS011;35069;47.906;1.892;2023-01-29T15:15:50;15.55;;;11.30;;
49237;SDS011;35069;47.906;1.892;2023-01-29T15:18:39;14.00;;;9.63;;
49237;SDS011;35069;47.906;1.892;2023-01-29T15:21:13;15.93;;;9.88;;
49237;SDS011;35069;47.906;1.892;2023-01-29T15:23:41;15.32;;;9.77;;
49237;SDS011;35069;47.906;1.892;2023-01-29T15:26:26;16.73;;;10.70;;
49237;SDS011;35069;47.906;1.892;2023-01-29T15:28:56;18.05;;;9.90;;
49237;SDS011;35069;47.906;1.892;2023-01-29T15:31:23;21.30;;;11.02;;
49237;SDS011;35069;47.906;1.892;2023-01-29T15:33:50;17.63;;;10.73;;
49237;SDS011;35069;47.906;1.892;2023-01-29T15:36:37;16.13;;;10.50;;
49237;SDS011;35069;47.906;1.892;2023-01-29T15:41:36;15.50;;;8.90;;
49237;SDS011;35069;47.906;1.892;2023-01-29T15:44:02;14.20;;;9.38;;
49237;SDS011;35069;47.906;1.892;2023-01-29T15:46:35;14.35;;;9.82;;
49237;SDS011;35069;47.906;1.892;2023-01-29T15:49:07;15.35;;;9.85;;
49237;SDS011;35069;47.906;1.892;2023-01-29T15:51:39;18.52;;;10.80;;
49237;SDS011;35069;47.906;1.892;2023-01-29T15:54:08;13.85;;;10.35;;
49237;SDS011;35069;47.906;1.892;2023-01-29T15:56:45;16.23;;;10.47;;
49237;SDS011;35069;47.906;1.892;2023-01-29T15:59:21;18.27;;;11.77;;
49237;SDS011;35069;47.906;1.892;2023-01-29T16:05:15;19.38;;;10.77;;
49237;SDS011;35069;47.906;1.892;2023-01-29T16:07:44;16.85;;;10.38;;
49237;SDS011;35069;47.906;1.892;2023-01-29T16:10:16;17.05;;;10.98;;
49237;SDS011;35069;47.906;1.892;2023-01-29T16:12:47;19.17;;;11.18;;
49237;SDS011;35069;47.906;1.892;2023-01-29T16:17:55;20.63;;;13.70;;
49237;SDS011;35069;47.906;1.892;2023-01-29T16:23:17;21.60;;;15.55;;
49237;SDS011;35069;47.906;1.892;2023-01-29T16:25:55;20.60;;;12.82;;
49237;SDS011;35069;47.906;1.892;2023-01-29T16:28:45;20.10;;;13.00;;
49237;SDS011;35069;47.906;1.892;2023-01-29T16:31:11;22.10;;;13.68;;
49237;SDS011;35069;47.906;1.892;2023-01-29T16:33:44;18.13;;;13.02;;
49237;SDS011;35069;47.906;1.892;2023-01-29T16:36:24;19.63;;;13.48;;
49237;SDS011;35069;47.906;1.892;2023-01-29T16:39:00;23.67;;;14.00;;
49237;SDS011;35069;47.906;1.892;2023-01-29T16:41:33;18.23;;;12.40;;
49237;SDS011;35069;47.906;1.892;2023-01-29T16:46:54;16.95;;;11.02;;
49237;SDS011;35069;47.906;1.892;2023-01-29T16:51:54;14.95;;;10.10;;
49237;SDS011;35069;47.906;1.892;2023-01-29T16:54:23;15.27;;;9.98;;
49237;SDS011;35069;47.906;1.892;2023-01-29T16:57:02;17.33;;;10.98;;
49237;SDS011;35069;47.906;1.892;2023-01-29T17:00:18;17.13;;;10.05;;
49237;SDS011;35069;47.906;1.892;2023-01-29T17:02:25;18.13;;;10.88;;
49237;SDS011;35069;47.906;1.892;2023-01-29T17:07:58;13.05;;;8.52;;
49237;SDS011;35069;47.906;1.892;2023-01-29T17:10:25;13.73;;;10.20;;
49237;SDS011;35069;47.906;1.892;2023-01-29T17:15:28;24.77;;;14.77;;
49237;SDS011;35069;47.906;1.892;2023-01-29T17:18:24;25.38;;;14.48;;
49237;SDS011;35069;47.906;1.892;2023-01-29T17:20:50;22.25;;;14.20;;
49237;SDS011;35069;47.906;1.892;2023-01-29T17:23:22;20.65;;;14.18;;
49237;SDS011;35069;47.906;1.892;2023-01-29T17:25:47;28.33;;;15.30;;
49237;SDS011;35069;47.906;1.892;2023-01-29T17:28:14;31.02;;;18.05;;
49237;SDS011;35069;47.906;1.892;2023-01-29T17:30:50;25.02;;;15.70;;
49237;SDS011;35069;47.906;1.892;2023-01-29T17:33:17;26.00;;;16.40;;
49237;SDS011;35069;47.906;1.892;2023-01-29T17:35:46;26.17;;;16.77;;
49237;SDS011;35069;47.906;1.892;2023-01-29T17:38:14;29.10;;;17.90;;
49237;SDS011;35069;47.906;1.892;2023-01-29T17:40:41;26.30;;;16.00;;
49237;SDS011;35069;47.906;1.892;2023-01-29T17:43:18;27.50;;;17.42;;